createdAt,value
2018-03-30T00:00:41.896Z,69.16
2018-03-30T00:03:10.294Z,68.86
2018-03-30T00:05:39.467Z,68.84
2018-03-30T00:08:07.904Z,68.79
2018-03-30T00:10:41.810Z,68.40
2018-03-30T00:13:11.231Z,68.02
2018-03-30T00:15:39.612Z,68.16
2018-03-30T00:18:08.005Z,67.68
2018-03-30T00:20:36.428Z,68.17
2018-03-30T00:23:04.823Z,67.66
2018-03-30T00:25:33.971Z,67.81
2018-03-30T00:28:02.353Z,67.30
2018-03-30T00:30:30.740Z,67.44
2018-03-30T00:32:59.152Z,67.81
2018-03-30T00:35:27.545Z,67.27
2018-03-30T00:37:55.920Z,67.64
2018-03-30T00:40:25.164Z,67.84
2018-03-30T00:42:53.586Z,68.22
2018-03-30T00:45:22.009Z,68.44
2018-03-30T00:47:50.508Z,68.41
2018-03-30T00:50:18.900Z,68.44
2018-03-30T00:52:47.283Z,68.61
2018-03-30T00:55:15.682Z,67.86
2018-03-30T00:57:44.063Z,68.80
2018-03-30T01:00:12.465Z,68.82
2018-03-30T01:02:40.963Z,68.02
2018-03-30T01:05:09.380Z,68.20
2018-03-30T01:07:37.753Z,67.97
2018-03-30T01:10:06.162Z,68.15
2018-03-30T01:12:34.634Z,68.43
2018-03-30T01:15:03.237Z,68.53
2018-03-30T01:17:31.656Z,68.94
2018-03-30T01:20:00.036Z,68.48
2018-03-30T01:22:28.417Z,68.41
2018-03-30T01:24:56.800Z,67.88
2018-03-30T01:27:25.939Z,68.18
2018-03-30T01:29:54.318Z,67.96
2018-03-30T01:32:22.702Z,68.70
2018-03-30T01:34:51.155Z,68.70
2018-03-30T01:37:20.352Z,69.35
2018-03-30T01:39:52.720Z,68.61
2018-03-30T01:42:21.891Z,68.80
2018-03-30T01:44:50.278Z,69.50
2018-03-30T01:47:18.678Z,69.13
2018-03-30T01:49:47.866Z,68.58
2018-03-30T01:52:16.288Z,68.71
2018-03-30T01:54:44.663Z,69.99
2018-03-30T01:57:13.064Z,69.14
2018-03-30T01:59:41.606Z,69.16
2018-03-30T02:02:10.755Z,69.11
2018-03-30T02:04:39.193Z,69.63
2018-03-30T02:07:07.582Z,69.37
2018-03-30T02:09:36.720Z,69.26
2018-03-30T02:12:05.273Z,68.87
2018-03-30T02:14:33.643Z,69.23
2018-03-30T02:17:02.948Z,68.81
2018-03-30T02:19:32.086Z,68.44
2018-03-30T02:22:01.386Z,69.08
2018-03-30T02:24:29.751Z,68.95
2018-03-30T02:26:58.127Z,68.71
2018-03-30T02:29:26.527Z,68.59
2018-03-30T02:31:54.893Z,69.08
2018-03-30T02:34:23.317Z,68.66
2018-03-30T02:36:51.711Z,68.83
2018-03-30T02:39:20.126Z,69.13
2018-03-30T02:41:48.542Z,69.12
2018-03-30T02:44:16.943Z,69.00
2018-03-30T02:46:45.348Z,69.06
2018-03-30T02:49:13.719Z,68.44
2018-03-30T02:51:42.175Z,69.18
2018-03-30T02:54:11.344Z,68.62
2018-03-30T02:56:39.937Z,69.17
2018-03-30T02:59:08.470Z,69.48
2018-03-30T03:01:37.037Z,68.69
2018-03-30T03:04:05.415Z,68.98
2018-03-30T03:06:33.804Z,69.76
2018-03-30T03:09:02.379Z,69.43
2018-03-30T03:11:30.762Z,69.32
2018-03-30T03:14:00.551Z,69.00
2018-03-30T03:16:28.947Z,69.20
2018-03-30T03:18:57.391Z,69.78
2018-03-30T03:21:26.526Z,69.30
2018-03-30T03:23:54.947Z,69.24
2018-03-30T03:26:23.330Z,69.28
2018-03-30T03:28:52.680Z,69.77
2018-03-30T03:31:21.144Z,69.29
2018-03-30T03:33:49.530Z,69.17
2018-03-30T03:36:17.925Z,68.94
2018-03-30T03:38:46.324Z,69.44
2018-03-30T03:41:14.878Z,69.85
2018-03-30T03:43:43.280Z,69.83
2018-03-30T03:46:11.671Z,69.46
2018-03-30T03:48:40.101Z,69.35
2018-03-30T03:51:09.240Z,69.35
2018-03-30T03:53:37.634Z,69.84
2018-03-30T03:56:06.043Z,69.45
2018-03-30T03:58:34.461Z,69.88
2018-03-30T04:01:02.973Z,69.83
2018-03-30T04:03:31.351Z,69.58
2018-03-30T04:05:59.755Z,70.23
2018-03-30T04:08:28.110Z,70.23
2018-03-30T04:10:56.486Z,69.93
2018-03-30T04:13:24.932Z,70.29
2018-03-30T04:15:54.134Z,71.32
2018-03-30T04:18:23.270Z,71.12
2018-03-30T04:20:51.631Z,70.26
2018-03-30T04:23:20.005Z,70.08
2018-03-30T04:25:48.371Z,71.13
2018-03-30T04:28:17.523Z,70.23
2018-03-30T04:30:45.900Z,70.76
2018-03-30T04:33:14.360Z,69.92
2018-03-30T04:35:42.725Z,69.56
2018-03-30T04:38:11.190Z,69.24
2018-03-30T04:40:40.342Z,69.57
2018-03-30T04:43:08.726Z,69.28
2018-03-30T04:45:37.138Z,69.46
2018-03-30T04:48:05.559Z,70.12
2018-03-30T04:50:33.965Z,69.59
2018-03-30T04:53:02.350Z,69.67
2018-03-30T04:55:30.926Z,69.74
2018-03-30T04:57:59.350Z,69.72
2018-03-30T05:00:27.723Z,69.21
2018-03-30T05:02:56.103Z,68.63
2018-03-30T05:05:25.268Z,68.63
2018-03-30T05:07:53.680Z,68.96
2018-03-30T05:10:22.016Z,68.81
2018-03-30T05:12:50.447Z,68.92
2018-03-30T05:15:18.835Z,68.70
2018-03-30T05:17:47.498Z,69.10
2018-03-30T05:20:15.892Z,68.79
2018-03-30T05:22:44.293Z,69.66
2018-03-30T05:25:13.463Z,69.18
2018-03-30T05:27:41.861Z,69.32
2018-03-30T05:30:10.426Z,69.19
2018-03-30T05:32:38.903Z,68.91
2018-03-30T05:35:07.299Z,68.76
2018-03-30T05:37:35.704Z,68.06
2018-03-30T05:40:04.097Z,68.37
2018-03-30T05:42:33.251Z,67.50
2018-03-30T05:45:01.635Z,68.23
2018-03-30T05:47:30.092Z,69.14
2018-03-30T05:49:58.484Z,68.57
2018-03-30T05:52:26.864Z,68.68
2018-03-30T05:54:55.306Z,68.92
2018-03-30T05:57:24.488Z,68.33
2018-03-30T05:59:52.889Z,67.27
2018-03-30T06:02:22.107Z,67.57
2018-03-30T06:04:50.516Z,67.62
2018-03-30T06:07:18.892Z,66.65
2018-03-30T06:09:47.286Z,65.86
2018-03-30T06:12:15.685Z,65.51
2018-03-30T06:14:44.128Z,65.08
2018-03-30T06:17:12.526Z,64.77
2018-03-30T06:19:40.904Z,64.15
2018-03-30T06:22:09.288Z,63.40
2018-03-30T06:24:37.710Z,63.03
2018-03-30T06:27:07.044Z,63.40
2018-03-30T06:29:36.215Z,64.28
2018-03-30T06:32:04.611Z,63.99
2018-03-30T06:34:32.987Z,64.60
2018-03-30T06:37:01.363Z,64.43
2018-03-30T06:39:31.376Z,64.68
2018-03-30T06:42:02.406Z,64.24
2018-03-30T06:44:31.562Z,63.96
2018-03-30T06:46:59.956Z,62.99
2018-03-30T06:49:28.583Z,63.01
2018-03-30T06:51:56.968Z,62.44
2018-03-30T06:54:25.344Z,62.13
2018-03-30T06:57:08.730Z,62.03
2018-03-30T06:59:37.130Z,59.63
2018-03-30T07:02:05.549Z,58.98
2018-03-30T07:04:34.798Z,58.85
2018-03-30T07:07:03.488Z,59.02
2018-03-30T07:09:31.893Z,59.42
2018-03-30T07:12:00.444Z,60.28
2018-03-30T07:14:28.817Z,60.28
2018-03-30T07:16:57.234Z,59.76
2018-03-30T07:19:25.854Z,57.33
2018-03-30T07:21:55.563Z,56.33
2018-03-30T07:24:23.974Z,55.61
2018-03-30T07:26:52.394Z,55.80
2018-03-30T07:29:20.811Z,55.44
2018-03-30T07:31:49.960Z,53.95
2018-03-30T07:34:18.384Z,53.23
2018-03-30T07:36:47.548Z,53.89
2018-03-30T07:39:15.977Z,52.58
2018-03-30T07:41:45.148Z,53.96
2018-03-30T07:44:14.320Z,53.33
2018-03-30T07:49:43.337Z,54.03
2018-03-30T07:52:11.718Z,52.65
2018-03-30T07:54:40.170Z,51.56
2018-03-30T07:57:08.596Z,49.64
2018-03-30T07:59:44.216Z,50.30
2018-03-30T08:02:13.661Z,47.74
2018-03-30T08:04:42.061Z,47.98
2018-03-30T08:07:10.458Z,49.12
2018-03-30T08:09:39.620Z,47.02
2018-03-30T08:12:08.303Z,46.87
2018-03-30T08:14:36.721Z,48.06
2018-03-30T08:17:05.141Z,48.18
2018-03-30T08:19:33.535Z,45.61
2018-03-30T08:22:01.923Z,46.20
2018-03-30T08:24:30.308Z,43.82
2018-03-30T08:26:58.747Z,44.49
2018-03-30T08:29:27.168Z,44.43
2018-03-30T08:31:55.574Z,44.88
2018-03-30T08:34:23.957Z,41.47
2018-03-30T08:36:52.354Z,41.83
2018-03-30T08:39:21.507Z,42.56
2018-03-30T08:41:49.964Z,42.80
2018-03-30T08:44:18.334Z,40.79
2018-03-30T08:46:46.751Z,39.63
2018-03-30T08:49:15.223Z,40.84
2018-03-30T08:51:43.607Z,41.07
2018-03-30T08:54:11.992Z,40.88
2018-03-30T08:56:41.678Z,38.62
2018-03-30T08:59:10.277Z,41.94
2018-03-30T09:01:38.719Z,43.27
2018-03-30T09:04:07.156Z,41.24
2018-03-30T09:06:35.568Z,40.23
2018-03-30T09:09:03.956Z,41.80
2018-03-30T09:11:32.342Z,41.67
2018-03-30T09:14:01.522Z,42.62
2018-03-30T09:16:29.925Z,41.54
2018-03-30T09:18:58.379Z,40.71
2018-03-30T09:21:26.832Z,40.55
2018-03-30T09:23:55.215Z,40.34
2018-03-30T09:26:23.646Z,40.50
2018-03-30T09:28:52.831Z,40.29
2018-03-30T09:31:22.023Z,40.09
2018-03-30T09:33:50.523Z,40.73
2018-03-30T09:36:19.699Z,41.57
2018-03-30T09:38:48.161Z,39.25
2018-03-30T09:41:16.600Z,38.45
2018-03-30T09:43:50.291Z,40.85
2018-03-30T09:49:20.559Z,41.13
2018-03-30T09:51:48.950Z,42.35
2018-03-30T09:54:17.371Z,41.70
2018-03-30T09:56:45.775Z,43.00
2018-03-30T09:59:14.211Z,42.71
2018-03-30T10:01:42.830Z,42.49
2018-03-30T10:04:11.292Z,41.57
2018-03-30T10:06:39.712Z,42.41
2018-03-30T10:09:08.904Z,42.77
2018-03-30T10:11:37.289Z,41.63
2018-03-30T10:14:06.475Z,39.87
2018-03-30T10:16:34.855Z,39.81
2018-03-30T10:19:03.407Z,38.08
2018-03-30T10:21:31.816Z,38.40
2018-03-30T10:24:00.368Z,39.23
2018-03-30T10:26:28.761Z,39.24
2018-03-30T10:28:57.176Z,37.29
2018-03-30T10:31:25.601Z,38.71
2018-03-30T10:33:53.975Z,37.47
2018-03-30T10:36:22.392Z,37.88
2018-03-30T10:38:50.867Z,38.13
2018-03-30T10:41:19.459Z,37.08
2018-03-30T10:43:48.025Z,36.81
2018-03-30T10:46:16.409Z,36.70
2018-03-30T10:48:44.835Z,37.60
2018-03-30T10:51:16.864Z,38.33
2018-03-30T10:53:45.288Z,35.80
2018-03-30T10:56:16.773Z,37.43
2018-03-30T10:58:48.379Z,35.27
2018-03-30T11:01:16.808Z,35.35
2018-03-30T11:03:50.878Z,34.02
2018-03-30T11:06:19.525Z,33.60
2018-03-30T11:08:47.915Z,36.81
2018-03-30T11:11:16.563Z,35.30
2018-03-30T11:13:45.730Z,36.61
2018-03-30T11:16:14.143Z,34.48
2018-03-30T11:18:42.568Z,34.41
2018-03-30T11:21:10.996Z,34.25
2018-03-30T11:23:39.440Z,35.39
2018-03-30T11:26:07.893Z,35.77
2018-03-30T11:28:36.303Z,36.81
2018-03-30T11:31:04.755Z,35.06
2018-03-30T11:33:33.135Z,33.88
2018-03-30T11:36:01.590Z,34.24
2018-03-30T11:38:30.762Z,33.57
2018-03-30T11:41:00.041Z,34.42
2018-03-30T11:43:28.492Z,34.24
2018-03-30T11:45:56.903Z,34.30
2018-03-30T11:48:25.333Z,34.09
2018-03-30T11:50:54.363Z,34.03
2018-03-30T11:53:23.052Z,32.08
2018-03-30T11:55:51.908Z,32.93
2018-03-30T11:58:20.560Z,34.06
2018-03-30T12:00:49.093Z,34.63
2018-03-30T12:03:18.256Z,34.87
2018-03-30T12:05:46.653Z,34.54
2018-03-30T12:08:15.322Z,36.09
2018-03-30T12:10:43.736Z,34.53
2018-03-30T12:13:12.216Z,34.11
2018-03-30T12:15:40.628Z,35.22
2018-03-30T12:18:09.044Z,35.68
2018-03-30T12:20:37.516Z,36.48
2018-03-30T12:23:06.104Z,35.90
2018-03-30T12:25:34.620Z,36.87
2018-03-30T12:28:03.006Z,35.63
2018-03-30T12:30:31.424Z,36.27
2018-03-30T12:32:59.828Z,36.91
2018-03-30T12:35:28.233Z,36.29
2018-03-30T12:37:57.517Z,35.94
2018-03-30T12:40:25.929Z,35.26
2018-03-30T12:42:54.373Z,35.26
2018-03-30T12:45:23.032Z,35.60
2018-03-30T12:47:52.246Z,35.40
2018-03-30T12:50:20.634Z,34.97
2018-03-30T12:52:49.037Z,35.62
2018-03-30T12:55:17.454Z,36.83
2018-03-30T12:57:45.896Z,36.13
2018-03-30T13:00:14.311Z,36.71
2018-03-30T13:02:42.709Z,36.33
2018-03-30T13:05:11.890Z,37.48
2018-03-30T13:07:40.301Z,37.62
2018-03-30T13:10:09.515Z,37.56
2018-03-30T13:12:38.661Z,37.54
2018-03-30T13:15:07.059Z,37.96
2018-03-30T13:17:35.503Z,39.10
2018-03-30T13:20:03.907Z,37.78
2018-03-30T13:22:32.302Z,37.65
2018-03-30T13:25:00.699Z,38.42
2018-03-30T13:27:29.908Z,38.96
2018-03-30T13:29:58.300Z,38.69
2018-03-30T13:32:26.782Z,38.76
2018-03-30T13:34:55.179Z,40.32
2018-03-30T13:37:24.273Z,38.66
2018-03-30T13:39:52.692Z,38.27
2018-03-30T13:42:21.057Z,38.65
2018-03-30T13:44:49.521Z,37.88
2018-03-30T13:47:17.921Z,40.31
2018-03-30T13:49:46.331Z,39.93
2018-03-30T13:52:34.102Z,38.81
2018-03-30T13:55:02.504Z,38.81
2018-03-30T14:00:48.990Z,39.17
2018-03-30T14:03:21.996Z,38.78
2018-03-30T14:06:13.840Z,37.64
2018-03-30T14:12:00.986Z,39.11
2018-03-30T14:14:29.384Z,37.80
2018-03-30T14:16:58.518Z,38.14
2018-03-30T14:19:28.687Z,40.28
2018-03-30T14:22:06.711Z,38.78
2018-03-30T14:24:37.948Z,39.89
2018-03-30T14:27:09.833Z,39.52
2018-03-30T14:29:38.931Z,39.67
2018-03-30T14:32:35.534Z,39.48
2018-03-30T14:35:12.518Z,39.39
2018-03-30T14:37:42.538Z,39.78
2018-03-30T14:40:30.068Z,40.16
2018-03-30T14:43:00.968Z,39.66
2018-03-30T14:45:46.914Z,40.64
2018-03-30T14:48:25.733Z,40.70
2018-03-30T14:51:10.680Z,40.36
2018-03-30T14:53:46.815Z,40.56
2018-03-30T14:56:32.698Z,40.77
2018-03-30T14:59:06.392Z,41.04
2018-03-30T15:01:46.891Z,41.86
2018-03-30T15:04:22.484Z,42.06
2018-03-30T15:06:59.510Z,41.70
2018-03-30T15:09:33.734Z,42.85
2018-03-30T15:12:11.917Z,41.26
2018-03-30T15:14:47.084Z,41.36
2018-03-30T15:17:25.501Z,41.34
2018-03-30T15:22:53.946Z,42.10
2018-03-30T15:25:23.004Z,42.28
2018-03-30T15:27:55.757Z,43.00
2018-03-30T15:30:31.743Z,43.03
2018-03-30T15:33:10.444Z,43.04
2018-03-30T15:35:54.461Z,42.93
2018-03-30T15:38:24.043Z,42.87
2018-03-30T15:40:52.955Z,42.58
2018-03-30T15:43:32.393Z,43.18
2018-03-30T15:46:26.511Z,43.23
2018-03-30T15:48:54.972Z,43.58
2018-03-30T15:51:31.770Z,43.42
2018-03-30T15:53:59.508Z,43.27
2018-03-30T15:56:30.588Z,43.39
2018-03-30T15:58:59.016Z,43.36
2018-03-30T16:01:28.760Z,43.65
2018-03-30T16:03:57.951Z,42.66
2018-03-30T16:06:26.456Z,42.92
2018-03-30T16:08:55.636Z,44.04
2018-03-30T16:11:36.624Z,42.83
2018-03-30T16:14:05.852Z,43.16
2018-03-30T16:16:34.263Z,42.37
2018-03-30T16:19:01.956Z,42.99
2018-03-30T16:21:29.795Z,42.63
2018-03-30T16:23:57.359Z,43.55
2018-03-30T16:26:24.960Z,42.71
2018-03-30T16:29:02.420Z,43.18
2018-03-30T16:31:30.019Z,44.74
2018-03-30T16:33:57.540Z,43.82
2018-03-30T16:36:25.089Z,43.80
2018-03-30T16:38:52.633Z,44.35
2018-03-30T16:41:20.178Z,44.40
2018-03-30T16:43:47.730Z,44.74
2018-03-30T16:46:15.450Z,45.81
2018-03-30T16:48:43.034Z,45.47
2018-03-30T16:51:10.637Z,45.56
2018-03-30T16:53:38.273Z,46.76
2018-03-30T16:56:06.587Z,46.28
2018-03-30T16:58:34.152Z,46.35
2018-03-30T17:01:01.714Z,46.22
2018-03-30T17:03:29.311Z,45.90
2018-03-30T17:05:56.921Z,46.75
2018-03-30T17:08:24.512Z,47.02
2018-03-30T17:10:52.088Z,46.65
2018-03-30T17:13:19.755Z,46.90
2018-03-30T17:15:47.329Z,47.74
2018-03-30T17:18:16.051Z,47.32
2018-03-30T17:20:44.842Z,47.40
2018-03-30T17:23:22.493Z,48.02
2018-03-30T17:25:50.036Z,48.22
2018-03-30T17:28:18.104Z,48.41
2018-03-30T17:30:47.541Z,48.44
2018-03-30T17:33:16.463Z,48.81
2018-03-30T17:35:44.813Z,49.48
2018-03-30T17:38:12.574Z,52.23
2018-03-30T17:40:41.069Z,52.69
2018-03-30T17:43:08.614Z,52.39
2018-03-30T17:45:36.244Z,54.14
2018-03-30T17:48:14.221Z,53.85
2018-03-30T17:50:41.832Z,54.10
2018-03-30T17:53:09.380Z,54.20
2018-03-30T17:55:37.318Z,54.18
2018-03-30T17:58:04.954Z,54.27
2018-03-30T18:00:32.539Z,54.17
2018-03-30T18:03:00.859Z,54.57
2018-03-30T18:05:28.494Z,55.07
2018-03-30T18:07:56.058Z,55.38
2018-03-30T18:10:23.621Z,59.00
2018-03-30T18:12:51.187Z,58.63
2018-03-30T18:15:18.733Z,60.56
2018-03-30T18:17:46.405Z,62.99
2018-03-30T18:20:14.094Z,64.44
2018-03-30T18:22:42.399Z,66.31
2018-03-30T18:25:10.109Z,65.72
2018-03-30T18:27:38.440Z,66.34
2018-03-30T18:30:06.120Z,66.18
2018-03-30T18:32:33.989Z,65.74
2018-03-30T18:35:01.595Z,64.62
2018-03-30T18:37:29.520Z,65.13
2018-03-30T18:39:57.193Z,65.39
2018-03-30T18:42:24.860Z,66.04
2018-03-30T18:44:52.512Z,66.39
2018-03-30T18:47:20.108Z,66.08
2018-03-30T18:49:47.706Z,66.83
2018-03-30T18:52:16.225Z,67.69
2018-03-30T18:54:43.908Z,67.44
2018-03-30T18:57:11.765Z,68.87
2018-03-30T18:59:39.507Z,68.84
2018-03-30T19:02:07.640Z,68.69
2018-03-30T19:04:35.235Z,67.74
2018-03-30T19:07:02.902Z,67.71
2018-03-30T19:09:30.559Z,66.29
2018-03-30T19:11:58.969Z,67.20
2018-03-30T19:14:26.531Z,66.02
2018-03-30T19:16:54.484Z,66.09
2018-03-30T19:19:22.126Z,66.30
2018-03-30T19:21:50.590Z,65.75
2018-03-30T19:24:18.347Z,64.66
2018-03-30T19:26:46.031Z,65.16
2018-03-30T19:29:14.633Z,66.41
2018-03-30T19:31:43.501Z,68.33
2018-03-30T19:34:11.147Z,70.11
2018-03-30T19:36:38.710Z,70.53
2018-03-30T19:39:06.247Z,70.61
2018-03-30T19:41:33.839Z,72.56
2018-03-30T19:44:01.372Z,72.75
2018-03-30T19:46:28.904Z,72.76
2018-03-30T19:48:56.470Z,70.14
2018-03-30T19:51:24.188Z,70.60
2018-03-30T19:53:51.870Z,68.86
2018-03-30T19:56:20.188Z,69.53
2018-03-30T19:58:47.785Z,69.25
2018-03-30T20:01:15.335Z,67.99
2018-03-30T20:03:43.141Z,69.20
2018-03-30T20:06:10.714Z,69.55
2018-03-30T20:08:39.118Z,70.66
2018-03-30T20:11:06.648Z,70.63
2018-03-30T20:13:34.978Z,70.27
2018-03-30T20:16:02.772Z,70.39
2018-03-30T20:18:30.351Z,70.25
2018-03-30T20:20:58.127Z,72.35
2018-03-30T20:23:25.813Z,71.63
2018-03-30T20:25:53.375Z,71.30
2018-03-30T20:28:20.975Z,71.05
2018-03-30T20:30:49.293Z,71.64
2018-03-30T20:33:16.827Z,71.70
2018-03-30T20:35:44.491Z,72.08
2018-03-30T20:38:12.566Z,73.46
2018-03-30T20:40:40.236Z,72.63
2018-03-30T20:43:07.903Z,72.61
2018-03-30T20:45:35.751Z,71.98
2018-03-30T20:48:03.353Z,71.58
2018-03-30T20:50:30.899Z,72.01
2018-03-30T20:52:58.458Z,71.97
2018-03-30T20:55:26.276Z,72.70
2018-03-30T20:57:54.624Z,71.57
2018-03-30T21:02:55.977Z,71.81
2018-03-30T21:05:23.579Z,72.48
2018-03-30T21:07:51.175Z,71.84
2018-03-30T21:10:19.487Z,71.92
2018-03-30T21:12:47.049Z,72.11
2018-03-30T21:15:14.594Z,71.94
2018-03-30T21:17:42.983Z,71.61
2018-03-30T21:20:10.512Z,71.58
2018-03-30T21:22:38.970Z,71.44
2018-03-30T21:25:06.582Z,72.31
2018-03-30T21:27:34.115Z,72.11
2018-03-30T21:30:02.425Z,71.79
2018-03-30T21:32:30.100Z,71.79
2018-03-30T21:34:57.896Z,72.44
2018-03-30T21:37:25.460Z,71.83
2018-03-30T21:39:53.020Z,72.18
2018-03-30T21:42:20.679Z,72.82
2018-03-30T21:44:48.232Z,72.38
2018-03-30T21:47:15.757Z,72.50
2018-03-30T21:49:43.301Z,72.76
2018-03-30T21:52:11.605Z,73.12
2018-03-30T21:54:39.135Z,72.57
2018-03-30T21:57:07.439Z,72.58
2018-03-30T21:59:35.002Z,73.31
2018-03-30T22:02:02.568Z,73.23
2018-03-30T22:04:30.161Z,73.44
2018-03-30T22:06:57.841Z,72.84
2018-03-30T22:09:25.387Z,72.70
2018-03-30T22:11:52.952Z,73.47
2018-03-30T22:14:20.564Z,73.60
2018-03-30T22:16:48.270Z,73.28
2018-03-30T22:19:15.816Z,73.24
2018-03-30T22:21:43.463Z,73.86
2018-03-30T22:24:11.013Z,73.60
2018-03-30T22:26:39.377Z,74.08
2018-03-30T22:29:06.921Z,73.70
2018-03-30T22:31:34.529Z,73.78
2018-03-30T22:34:02.397Z,73.39
2018-03-30T22:36:30.144Z,73.13
2018-03-30T22:38:58.531Z,73.17
2018-03-30T22:41:26.069Z,73.25
2018-03-30T22:43:53.702Z,72.86
2018-03-30T22:46:21.253Z,73.55
2018-03-30T22:48:48.775Z,73.64
2018-03-30T22:51:17.077Z,73.59
2018-03-30T22:53:44.637Z,73.57
2018-03-30T22:56:12.192Z,73.51
2018-03-30T22:58:39.775Z,73.31
2018-03-30T23:01:07.260Z,73.42
2018-03-30T23:03:34.895Z,73.77
2018-03-30T23:06:02.423Z,74.40
2018-03-30T23:08:30.736Z,74.70
2018-03-30T23:10:58.274Z,74.68
2018-03-30T23:13:25.804Z,74.78
2018-03-30T23:15:53.334Z,75.42
2018-03-30T23:18:20.881Z,75.36
2018-03-30T23:20:48.432Z,75.65
2018-03-30T23:23:15.987Z,75.93
2018-03-30T23:25:44.367Z,75.87
2018-03-30T23:28:11.938Z,76.05
2018-03-30T23:30:39.511Z,76.49
2018-03-30T23:33:07.068Z,76.00
2018-03-30T23:35:34.630Z,76.29
2018-03-30T23:38:02.204Z,76.07
2018-03-30T23:42:56.995Z,76.43
2018-03-30T23:45:24.555Z,76.82
2018-03-30T23:47:52.867Z,76.55
2018-03-30T23:50:20.387Z,77.25
2018-03-30T23:52:47.932Z,76.79
2018-03-30T23:55:16.230Z,75.85
2018-03-30T23:57:44.640Z,76.24
